sensor_id;sensor_type;location;lat;lon;timestamp;P1;durP1;ratioP1;P2;durP2;ratioP2
5847;SDS011;8756;49.29324300;8.70599800;2022-07-23T00:01:15;20.80;;;11.27;;
5847;SDS011;8756;49.29324300;8.70599800;2022-07-23T00:03:41;19.20;;;11.57;;
5847;SDS011;8756;49.29324300;8.70599800;2022-07-23T00:06:06;19.77;;;10.57;;
5847;SDS011;8756;49.29324300;8.70599800;2022-07-23T00:08:32;18.47;;;11.20;;
5847;SDS011;8756;49.29324300;8.70599800;2022-07-23T00:10:58;19.53;;;10.93;;
5847;SDS011;8756;49.29324300;8.70599800;2022-07-23T00:13:23;18.90;;;10.90;;
5847;SDS011;8756;49.29324300;8.70599800;2022-07-23T00:15:49;19.17;;;10.90;;
5847;SDS011;8756;49.29324300;8.70599800;2022-07-23T00:18:15;20.80;;;11.53;;
5847;SDS011;8756;49.29324300;8.70599800;2022-07-23T00:20:40;23.63;;;10.70;;
5847;SDS011;8756;49.29324300;8.70599800;2022-07-23T00:23:06;19.63;;;10.30;;
5847;SDS011;8756;49.29324300;8.70599800;2022-07-23T00:25:31;19.83;;;10.80;;
5847;SDS011;8756;49.29324300;8.70599800;2022-07-23T00:27:57;22.30;;;12.03;;
5847;SDS011;8756;49.29324300;8.70599800;2022-07-23T00:30:24;19.83;;;11.23;;
5847;SDS011;8756;49.29324300;8.70599800;2022-07-23T00:32:51;22.50;;;11.70;;
5847;SDS011;8756;49.29324300;8.70599800;2022-07-23T00:35:21;18.43;;;11.33;;
5847;SDS011;8756;49.29324300;8.70599800;2022-07-23T00:37:47;21.43;;;12.30;;
5847;SDS011;8756;49.29324300;8.70599800;2022-07-23T00:40:13;21.80;;;11.03;;
5847;SDS011;8756;49.29324300;8.70599800;2022-07-23T00:42:41;21.17;;;12.10;;
5847;SDS011;8756;49.29324300;8.70599800;2022-07-23T00:45:07;19.47;;;11.23;;
5847;SDS011;8756;49.29324300;8.70599800;2022-07-23T00:47:33;20.90;;;11.47;;
5847;SDS011;8756;49.29324300;8.70599800;2022-07-23T00:50:03;18.47;;;10.83;;
5847;SDS011;8756;49.29324300;8.70599800;2022-07-23T00:52:30;20.00;;;11.20;;
5847;SDS011;8756;49.29324300;8.70599800;2022-07-23T00:54:59;19.40;;;11.10;;
5847;SDS011;8756;49.29324300;8.70599800;2022-07-23T00:57:25;23.23;;;11.87;;
5847;SDS011;8756;49.29324300;8.70599800;2022-07-23T00:59:51;18.60;;;10.83;;
5847;SDS011;8756;49.29324300;8.70599800;2022-07-23T01:02:17;19.70;;;12.60;;
5847;SDS011;8756;49.29324300;8.70599800;2022-07-23T01:04:42;19.80;;;12.23;;
5847;SDS011;8756;49.29324300;8.70599800;2022-07-23T01:07:08;18.57;;;11.60;;
5847;SDS011;8756;49.29324300;8.70599800;2022-07-23T01:09:34;21.37;;;12.63;;
5847;SDS011;8756;49.29324300;8.70599800;2022-07-23T01:11:59;22.67;;;11.13;;
5847;SDS011;8756;49.29324300;8.70599800;2022-07-23T01:14:25;18.40;;;10.97;;
5847;SDS011;8756;49.29324300;8.70599800;2022-07-23T01:16:52;21.10;;;11.93;;
5847;SDS011;8756;49.29324300;8.70599800;2022-07-23T01:19:17;17.77;;;10.07;;
5847;SDS011;8756;49.29324300;8.70599800;2022-07-23T01:21:47;18.83;;;11.60;;
5847;SDS011;8756;49.29324300;8.70599800;2022-07-23T01:24:15;22.30;;;11.83;;
5847;SDS011;8756;49.29324300;8.70599800;2022-07-23T01:26:43;22.40;;;11.53;;
5847;SDS011;8756;49.29324300;8.70599800;2022-07-23T01:29:10;18.10;;;11.43;;
5847;SDS011;8756;49.29324300;8.70599800;2022-07-23T01:31:36;21.20;;;12.40;;
5847;SDS011;8756;49.29324300;8.70599800;2022-07-23T01:34:02;19.30;;;11.83;;
5847;SDS011;8756;49.29324300;8.70599800;2022-07-23T01:36:27;20.77;;;10.83;;
5847;SDS011;8756;49.29324300;8.70599800;2022-07-23T01:38:53;22.37;;;10.97;;
5847;SDS011;8756;49.29324300;8.70599800;2022-07-23T01:41:19;18.77;;;11.30;;
5847;SDS011;8756;49.29324300;8.70599800;2022-07-23T01:43:45;18.10;;;10.77;;
5847;SDS011;8756;49.29324300;8.70599800;2022-07-23T01:46:11;23.33;;;11.07;;
5847;SDS011;8756;49.29324300;8.70599800;2022-07-23T01:48:37;20.47;;;10.40;;
5847;SDS011;8756;49.29324300;8.70599800;2022-07-23T01:51:02;20.10;;;10.70;;
5847;SDS011;8756;49.29324300;8.70599800;2022-07-23T01:53:28;22.47;;;9.90;;
5847;SDS011;8756;49.29324300;8.70599800;2022-07-23T01:55:56;19.47;;;10.27;;
5847;SDS011;8756;49.29324300;8.70599800;2022-07-23T01:58:25;18.00;;;9.83;;
5847;SDS011;8756;49.29324300;8.70599800;2022-07-23T02:00:51;20.63;;;10.07;;
5847;SDS011;8756;49.29324300;8.70599800;2022-07-23T02:03:17;17.30;;;8.77;;
5847;SDS011;8756;49.29324300;8.70599800;2022-07-23T02:05:43;18.40;;;8.80;;
5847;SDS011;8756;49.29324300;8.70599800;2022-07-23T02:08:09;17.47;;;9.20;;
5847;SDS011;8756;49.29324300;8.70599800;2022-07-23T02:10:34;17.80;;;9.13;;
5847;SDS011;8756;49.29324300;8.70599800;2022-07-23T02:13:00;16.37;;;8.60;;
5847;SDS011;8756;49.29324300;8.70599800;2022-07-23T02:15:26;19.97;;;9.90;;
5847;SDS011;8756;49.29324300;8.70599800;2022-07-23T02:17:51;19.70;;;9.37;;
5847;SDS011;8756;49.29324300;8.70599800;2022-07-23T02:20:17;16.97;;;9.27;;
5847;SDS011;8756;49.29324300;8.70599800;2022-07-23T02:22:43;22.07;;;10.13;;
5847;SDS011;8756;49.29324300;8.70599800;2022-07-23T02:25:09;18.50;;;10.27;;
5847;SDS011;8756;49.29324300;8.70599800;2022-07-23T02:27:35;19.37;;;9.23;;
5847;SDS011;8756;49.29324300;8.70599800;2022-07-23T02:30:01;19.77;;;9.40;;
5847;SDS011;8756;49.29324300;8.70599800;2022-07-23T02:32:28;22.57;;;9.87;;
5847;SDS011;8756;49.29324300;8.70599800;2022-07-23T02:34:54;18.03;;;8.80;;
5847;SDS011;8756;49.29324300;8.70599800;2022-07-23T02:37:19;17.20;;;9.60;;
5847;SDS011;8756;49.29324300;8.70599800;2022-07-23T02:39:45;18.03;;;8.60;;
5847;SDS011;8756;49.29324300;8.70599800;2022-07-23T02:42:13;20.77;;;9.70;;
5847;SDS011;8756;49.29324300;8.70599800;2022-07-23T02:44:39;19.00;;;8.83;;
5847;SDS011;8756;49.29324300;8.70599800;2022-07-23T02:47:04;17.40;;;7.90;;
5847;SDS011;8756;49.29324300;8.70599800;2022-07-23T02:49:30;19.70;;;9.60;;
5847;SDS011;8756;49.29324300;8.70599800;2022-07-23T02:51:56;17.17;;;9.33;;
5847;SDS011;8756;49.29324300;8.70599800;2022-07-23T02:54:22;18.83;;;9.37;;
5847;SDS011;8756;49.29324300;8.70599800;2022-07-23T02:56:47;17.60;;;9.20;;
5847;SDS011;8756;49.29324300;8.70599800;2022-07-23T02:59:13;18.47;;;9.70;;
5847;SDS011;8756;49.29324300;8.70599800;2022-07-23T03:01:38;18.60;;;9.07;;
5847;SDS011;8756;49.29324300;8.70599800;2022-07-23T03:04:04;16.50;;;8.30;;
5847;SDS011;8756;49.29324300;8.70599800;2022-07-23T03:06:30;16.10;;;8.63;;
5847;SDS011;8756;49.29324300;8.70599800;2022-07-23T03:08:56;16.77;;;8.93;;
5847;SDS011;8756;49.29324300;8.70599800;2022-07-23T03:11:21;17.13;;;9.00;;
5847;SDS011;8756;49.29324300;8.70599800;2022-07-23T03:13:47;17.37;;;9.53;;
5847;SDS011;8756;49.29324300;8.70599800;2022-07-23T03:16:12;19.77;;;8.53;;
5847;SDS011;8756;49.29324300;8.70599800;2022-07-23T03:18:38;16.67;;;8.43;;
5847;SDS011;8756;49.29324300;8.70599800;2022-07-23T03:21:04;16.97;;;9.30;;
5847;SDS011;8756;49.29324300;8.70599800;2022-07-23T03:23:29;18.30;;;9.13;;
5847;SDS011;8756;49.29324300;8.70599800;2022-07-23T03:25:55;18.40;;;8.40;;
5847;SDS011;8756;49.29324300;8.70599800;2022-07-23T03:28:21;15.70;;;8.23;;
5847;SDS011;8756;49.29324300;8.70599800;2022-07-23T03:30:47;18.13;;;8.73;;
5847;SDS011;8756;49.29324300;8.70599800;2022-07-23T03:33:13;16.90;;;8.10;;
5847;SDS011;8756;49.29324300;8.70599800;2022-07-23T03:35:41;19.83;;;8.10;;
5847;SDS011;8756;49.29324300;8.70599800;2022-07-23T03:38:08;16.13;;;7.90;;
5847;SDS011;8756;49.29324300;8.70599800;2022-07-23T03:40:34;17.90;;;8.67;;
5847;SDS011;8756;49.29324300;8.70599800;2022-07-23T03:42:59;16.83;;;8.20;;
5847;SDS011;8756;49.29324300;8.70599800;2022-07-23T03:45:25;18.40;;;9.23;;
5847;SDS011;8756;49.29324300;8.70599800;2022-07-23T03:47:51;17.67;;;8.90;;
5847;SDS011;8756;49.29324300;8.70599800;2022-07-23T03:50:16;18.97;;;9.20;;
5847;SDS011;8756;49.29324300;8.70599800;2022-07-23T03:52:42;17.70;;;9.20;;
5847;SDS011;8756;49.29324300;8.70599800;2022-07-23T03:55:08;17.23;;;9.03;;
5847;SDS011;8756;49.29324300;8.70599800;2022-07-23T03:57:33;18.00;;;8.63;;
5847;SDS011;8756;49.29324300;8.70599800;2022-07-23T03:59:59;19.03;;;9.03;;
5847;SDS011;8756;49.29324300;8.70599800;2022-07-23T04:02:25;16.90;;;8.93;;
5847;SDS011;8756;49.29324300;8.70599800;2022-07-23T04:04:50;19.00;;;9.50;;
5847;SDS011;8756;49.29324300;8.70599800;2022-07-23T04:07:16;19.30;;;9.00;;
5847;SDS011;8756;49.29324300;8.70599800;2022-07-23T04:09:46;16.50;;;7.87;;
5847;SDS011;8756;49.29324300;8.70599800;2022-07-23T04:12:12;17.90;;;9.93;;
5847;SDS011;8756;49.29324300;8.70599800;2022-07-23T04:14:38;18.67;;;9.40;;
5847;SDS011;8756;49.29324300;8.70599800;2022-07-23T04:17:04;17.57;;;8.27;;
5847;SDS011;8756;49.29324300;8.70599800;2022-07-23T04:19:29;17.50;;;8.70;;
5847;SDS011;8756;49.29324300;8.70599800;2022-07-23T04:21:55;18.43;;;8.93;;
5847;SDS011;8756;49.29324300;8.70599800;2022-07-23T04:24:22;17.43;;;8.57;;
5847;SDS011;8756;49.29324300;8.70599800;2022-07-23T04:26:48;18.23;;;9.40;;
5847;SDS011;8756;49.29324300;8.70599800;2022-07-23T04:29:13;19.77;;;10.30;;
5847;SDS011;8756;49.29324300;8.70599800;2022-07-23T04:31:39;18.57;;;10.20;;
5847;SDS011;8756;49.29324300;8.70599800;2022-07-23T04:34:05;17.47;;;9.10;;
5847;SDS011;8756;49.29324300;8.70599800;2022-07-23T04:36:30;19.47;;;9.30;;
5847;SDS011;8756;49.29324300;8.70599800;2022-07-23T04:38:56;16.73;;;9.80;;
5847;SDS011;8756;49.29324300;8.70599800;2022-07-23T04:41:22;19.10;;;9.83;;
5847;SDS011;8756;49.29324300;8.70599800;2022-07-23T04:43:47;18.20;;;10.00;;
5847;SDS011;8756;49.29324300;8.70599800;2022-07-23T04:46:13;17.97;;;9.63;;
5847;SDS011;8756;49.29324300;8.70599800;2022-07-23T04:48:39;19.53;;;11.37;;
5847;SDS011;8756;49.29324300;8.70599800;2022-07-23T04:51:05;19.30;;;10.10;;
5847;SDS011;8756;49.29324300;8.70599800;2022-07-23T04:53:31;22.17;;;10.90;;
5847;SDS011;8756;49.29324300;8.70599800;2022-07-23T04:55:56;21.20;;;10.70;;
5847;SDS011;8756;49.29324300;8.70599800;2022-07-23T04:58:22;21.10;;;10.90;;
5847;SDS011;8756;49.29324300;8.70599800;2022-07-23T05:00:48;18.60;;;10.60;;
5847;SDS011;8756;49.29324300;8.70599800;2022-07-23T05:03:13;20.23;;;10.67;;
5847;SDS011;8756;49.29324300;8.70599800;2022-07-23T05:05:39;19.00;;;10.97;;
5847;SDS011;8756;49.29324300;8.70599800;2022-07-23T05:08:05;20.93;;;10.00;;
5847;SDS011;8756;49.29324300;8.70599800;2022-07-23T05:10:30;19.30;;;10.57;;
5847;SDS011;8756;49.29324300;8.70599800;2022-07-23T05:12:56;19.70;;;10.73;;
5847;SDS011;8756;49.29324300;8.70599800;2022-07-23T05:15:23;20.73;;;9.90;;
5847;SDS011;8756;49.29324300;8.70599800;2022-07-23T05:17:49;19.80;;;10.43;;
5847;SDS011;8756;49.29324300;8.70599800;2022-07-23T05:20:14;19.33;;;11.33;;
5847;SDS011;8756;49.29324300;8.70599800;2022-07-23T05:22:40;20.67;;;11.70;;
5847;SDS011;8756;49.29324300;8.70599800;2022-07-23T05:25:06;21.50;;;12.20;;
5847;SDS011;8756;49.29324300;8.70599800;2022-07-23T05:27:32;18.70;;;11.40;;
5847;SDS011;8756;49.29324300;8.70599800;2022-07-23T05:29:57;23.37;;;11.93;;
5847;SDS011;8756;49.29324300;8.70599800;2022-07-23T05:32:23;23.67;;;11.37;;
5847;SDS011;8756;49.29324300;8.70599800;2022-07-23T05:34:49;19.83;;;11.40;;
5847;SDS011;8756;49.29324300;8.70599800;2022-07-23T05:37:15;21.77;;;11.30;;
5847;SDS011;8756;49.29324300;8.70599800;2022-07-23T05:39:41;23.03;;;11.80;;
5847;SDS011;8756;49.29324300;8.70599800;2022-07-23T05:42:06;22.07;;;12.40;;
5847;SDS011;8756;49.29324300;8.70599800;2022-07-23T05:44:32;20.60;;;12.90;;
5847;SDS011;8756;49.29324300;8.70599800;2022-07-23T05:46:58;22.63;;;11.97;;
5847;SDS011;8756;49.29324300;8.70599800;2022-07-23T05:49:24;19.67;;;11.50;;
5847;SDS011;8756;49.29324300;8.70599800;2022-07-23T05:51:49;22.80;;;13.17;;
5847;SDS011;8756;49.29324300;8.70599800;2022-07-23T05:54:15;23.77;;;12.80;;
5847;SDS011;8756;49.29324300;8.70599800;2022-07-23T05:56:41;22.13;;;12.53;;
5847;SDS011;8756;49.29324300;8.70599800;2022-07-23T05:59:06;24.83;;;13.43;;
5847;SDS011;8756;49.29324300;8.70599800;2022-07-23T06:01:32;20.43;;;12.17;;
5847;SDS011;8756;49.29324300;8.70599800;2022-07-23T06:03:58;22.80;;;11.47;;
5847;SDS011;8756;49.29324300;8.70599800;2022-07-23T06:06:23;21.60;;;12.60;;
5847;SDS011;8756;49.29324300;8.70599800;2022-07-23T06:08:49;22.53;;;12.00;;
5847;SDS011;8756;49.29324300;8.70599800;2022-07-23T06:11:14;27.10;;;12.83;;
5847;SDS011;8756;49.29324300;8.70599800;2022-07-23T06:13:40;22.03;;;12.80;;
5847;SDS011;8756;49.29324300;8.70599800;2022-07-23T06:16:09;20.37;;;12.23;;
5847;SDS011;8756;49.29324300;8.70599800;2022-07-23T06:18:34;20.03;;;12.13;;
5847;SDS011;8756;49.29324300;8.70599800;2022-07-23T06:21:00;20.77;;;12.07;;
5847;SDS011;8756;49.29324300;8.70599800;2022-07-23T06:23:25;20.20;;;12.50;;
5847;SDS011;8756;49.29324300;8.70599800;2022-07-23T06:25:51;21.53;;;12.83;;
5847;SDS011;8756;49.29324300;8.70599800;2022-07-23T06:28:17;22.20;;;13.33;;
5847;SDS011;8756;49.29324300;8.70599800;2022-07-23T06:30:42;22.50;;;13.00;;
5847;SDS011;8756;49.29324300;8.70599800;2022-07-23T06:33:08;20.30;;;12.37;;
5847;SDS011;8756;49.29324300;8.70599800;2022-07-23T06:35:34;21.57;;;12.70;;
5847;SDS011;8756;49.29324300;8.70599800;2022-07-23T06:38:00;21.13;;;12.50;;
5847;SDS011;8756;49.29324300;8.70599800;2022-07-23T06:40:25;26.20;;;13.10;;
5847;SDS011;8756;49.29324300;8.70599800;2022-07-23T06:42:51;22.47;;;12.43;;
5847;SDS011;8756;49.29324300;8.70599800;2022-07-23T06:45:17;29.97;;;13.27;;
5847;SDS011;8756;49.29324300;8.70599800;2022-07-23T06:47:43;21.73;;;13.77;;
5847;SDS011;8756;49.29324300;8.70599800;2022-07-23T06:50:09;23.67;;;12.60;;
5847;SDS011;8756;49.29324300;8.70599800;2022-07-23T06:52:35;22.80;;;12.90;;
5847;SDS011;8756;49.29324300;8.70599800;2022-07-23T06:55:00;22.70;;;12.00;;
5847;SDS011;8756;49.29324300;8.70599800;2022-07-23T06:57:26;23.90;;;13.80;;
5847;SDS011;8756;49.29324300;8.70599800;2022-07-23T06:59:52;27.23;;;14.00;;
5847;SDS011;8756;49.29324300;8.70599800;2022-07-23T07:02:18;20.07;;;12.60;;
5847;SDS011;8756;49.29324300;8.70599800;2022-07-23T07:04:44;25.87;;;12.67;;
5847;SDS011;8756;49.29324300;8.70599800;2022-07-23T07:07:10;23.03;;;12.87;;
5847;SDS011;8756;49.29324300;8.70599800;2022-07-23T07:09:37;21.73;;;12.53;;
5847;SDS011;8756;49.29324300;8.70599800;2022-07-23T07:12:02;22.57;;;13.00;;
5847;SDS011;8756;49.29324300;8.70599800;2022-07-23T07:14:28;28.83;;;14.67;;
5847;SDS011;8756;49.29324300;8.70599800;2022-07-23T07:16:54;22.80;;;12.60;;
5847;SDS011;8756;49.29324300;8.70599800;2022-07-23T07:19:20;26.30;;;14.77;;
5847;SDS011;8756;49.29324300;8.70599800;2022-07-23T07:21:45;22.97;;;12.57;;
5847;SDS011;8756;49.29324300;8.70599800;2022-07-23T07:24:11;25.87;;;14.77;;
5847;SDS011;8756;49.29324300;8.70599800;2022-07-23T07:26:36;23.97;;;14.93;;
5847;SDS011;8756;49.29324300;8.70599800;2022-07-23T07:29:04;24.17;;;13.27;;
5847;SDS011;8756;49.29324300;8.70599800;2022-07-23T07:31:30;25.50;;;13.47;;
5847;SDS011;8756;49.29324300;8.70599800;2022-07-23T07:33:56;25.03;;;14.57;;
5847;SDS011;8756;49.29324300;8.70599800;2022-07-23T07:36:22;24.80;;;13.67;;
5847;SDS011;8756;49.29324300;8.70599800;2022-07-23T07:38:48;23.90;;;14.20;;
5847;SDS011;8756;49.29324300;8.70599800;2022-07-23T07:41:14;21.90;;;13.83;;
5847;SDS011;8756;49.29324300;8.70599800;2022-07-23T07:43:39;25.60;;;14.20;;
5847;SDS011;8756;49.29324300;8.70599800;2022-07-23T07:46:05;23.50;;;13.40;;
5847;SDS011;8756;49.29324300;8.70599800;2022-07-23T07:48:34;24.67;;;12.73;;
5847;SDS011;8756;49.29324300;8.70599800;2022-07-23T07:51:04;23.90;;;13.40;;
5847;SDS011;8756;49.29324300;8.70599800;2022-07-23T07:53:30;20.33;;;12.80;;
5847;SDS011;8756;49.29324300;8.70599800;2022-07-23T07:55:55;25.53;;;13.80;;
5847;SDS011;8756;49.29324300;8.70599800;2022-07-23T07:58:21;24.10;;;13.20;;
5847;SDS011;8756;49.29324300;8.70599800;2022-07-23T08:00:47;23.10;;;13.50;;
5847;SDS011;8756;49.29324300;8.70599800;2022-07-23T08:03:13;22.67;;;13.00;;
5847;SDS011;8756;49.29324300;8.70599800;2022-07-23T08:05:38;24.40;;;13.60;;
5847;SDS011;8756;49.29324300;8.70599800;2022-07-23T08:08:04;25.27;;;14.77;;
5847;SDS011;8756;49.29324300;8.70599800;2022-07-23T08:10:30;24.47;;;14.63;;
5847;SDS011;8756;49.29324300;8.70599800;2022-07-23T08:12:56;25.03;;;14.50;;
5847;SDS011;8756;49.29324300;8.70599800;2022-07-23T08:15:23;26.67;;;13.83;;
5847;SDS011;8756;49.29324300;8.70599800;2022-07-23T08:17:50;19.47;;;12.43;;
5847;SDS011;8756;49.29324300;8.70599800;2022-07-23T08:20:17;24.33;;;14.00;;
5847;SDS011;8756;49.29324300;8.70599800;2022-07-23T08:22:46;19.07;;;11.33;;
5847;SDS011;8756;49.29324300;8.70599800;2022-07-23T08:25:21;21.20;;;12.60;;
5847;SDS011;8756;49.29324300;8.70599800;2022-07-23T08:27:49;23.43;;;13.00;;
5847;SDS011;8756;49.29324300;8.70599800;2022-07-23T08:30:15;21.27;;;12.83;;
5847;SDS011;8756;49.29324300;8.70599800;2022-07-23T08:32:48;22.23;;;13.10;;
5847;SDS011;8756;49.29324300;8.70599800;2022-07-23T08:35:13;20.93;;;12.77;;
5847;SDS011;8756;49.29324300;8.70599800;2022-07-23T08:37:39;23.67;;;12.73;;
5847;SDS011;8756;49.29324300;8.70599800;2022-07-23T08:40:05;20.27;;;12.20;;
5847;SDS011;8756;49.29324300;8.70599800;2022-07-23T08:42:31;25.73;;;11.90;;
5847;SDS011;8756;49.29324300;8.70599800;2022-07-23T08:45:00;20.73;;;12.30;;
5847;SDS011;8756;49.29324300;8.70599800;2022-07-23T08:47:27;19.80;;;11.57;;
5847;SDS011;8756;49.29324300;8.70599800;2022-07-23T08:49:54;25.73;;;14.60;;
5847;SDS011;8756;49.29324300;8.70599800;2022-07-23T08:52:21;25.87;;;14.40;;
5847;SDS011;8756;49.29324300;8.70599800;2022-07-23T08:54:48;22.90;;;13.20;;
5847;SDS011;8756;49.29324300;8.70599800;2022-07-23T08:57:14;21.40;;;12.13;;
5847;SDS011;8756;49.29324300;8.70599800;2022-07-23T08:59:40;24.50;;;12.00;;
5847;SDS011;8756;49.29324300;8.70599800;2022-07-23T09:02:06;20.37;;;12.60;;
5847;SDS011;8756;49.29324300;8.70599800;2022-07-23T09:04:32;22.10;;;13.10;;
5847;SDS011;8756;49.29324300;8.70599800;2022-07-23T09:06:58;23.50;;;13.83;;
5847;SDS011;8756;49.29324300;8.70599800;2022-07-23T09:09:27;22.87;;;14.10;;
5847;SDS011;8756;49.29324300;8.70599800;2022-07-23T09:12:08;24.00;;;13.57;;
5847;SDS011;8756;49.29324300;8.70599800;2022-07-23T09:14:43;23.00;;;12.60;;
5847;SDS011;8756;49.29324300;8.70599800;2022-07-23T09:17:16;25.50;;;12.93;;
5847;SDS011;8756;49.29324300;8.70599800;2022-07-23T09:19:43;23.90;;;14.17;;
5847;SDS011;8756;49.29324300;8.70599800;2022-07-23T09:22:26;24.73;;;13.33;;
5847;SDS011;8756;49.29324300;8.70599800;2022-07-23T09:25:02;22.63;;;12.43;;
5847;SDS011;8756;49.29324300;8.70599800;2022-07-23T09:28:16;24.57;;;13.07;;
5847;SDS011;8756;49.29324300;8.70599800;2022-07-23T09:30:20;21.63;;;12.67;;
5847;SDS011;8756;49.29324300;8.70599800;2022-07-23T09:33:09;21.70;;;13.70;;
5847;SDS011;8756;49.29324300;8.70599800;2022-07-23T09:35:53;24.43;;;13.37;;
5847;SDS011;8756;49.29324300;8.70599800;2022-07-23T09:38:22;22.50;;;12.87;;
5847;SDS011;8756;49.29324300;8.70599800;2022-07-23T09:41:05;22.57;;;13.17;;
5847;SDS011;8756;49.29324300;8.70599800;2022-07-23T09:43:34;22.20;;;12.73;;
5847;SDS011;8756;49.29324300;8.70599800;2022-07-23T09:46:16;25.43;;;14.13;;
5847;SDS011;8756;49.29324300;8.70599800;2022-07-23T09:48:47;25.00;;;13.33;;
5847;SDS011;8756;49.29324300;8.70599800;2022-07-23T09:51:13;22.93;;;13.87;;
5847;SDS011;8756;49.29324300;8.70599800;2022-07-23T09:53:58;25.07;;;13.83;;
5847;SDS011;8756;49.29324300;8.70599800;2022-07-23T09:56:24;22.87;;;11.90;;
5847;SDS011;8756;49.29324300;8.70599800;2022-07-23T09:58:53;22.60;;;13.73;;
5847;SDS011;8756;49.29324300;8.70599800;2022-07-23T10:01:37;22.27;;;12.10;;
5847;SDS011;8756;49.29324300;8.70599800;2022-07-23T10:04:04;24.70;;;14.07;;
5847;SDS011;8756;49.29324300;8.70599800;2022-07-23T10:06:31;24.40;;;12.50;;
5847;SDS011;8756;49.29324300;8.70599800;2022-07-23T10:08:57;21.87;;;13.00;;
5847;SDS011;8756;49.29324300;8.70599800;2022-07-23T10:11:25;23.13;;;12.17;;
5847;SDS011;8756;49.29324300;8.70599800;2022-07-23T10:13:53;22.30;;;12.47;;
5847;SDS011;8756;49.29324300;8.70599800;2022-07-23T10:16:20;19.43;;;11.20;;
5847;SDS011;8756;49.29324300;8.70599800;2022-07-23T10:18:46;21.47;;;13.03;;
5847;SDS011;8756;49.29324300;8.70599800;2022-07-23T10:21:12;21.20;;;12.20;;
5847;SDS011;8756;49.29324300;8.70599800;2022-07-23T10:23:58;20.07;;;12.10;;
5847;SDS011;8756;49.29324300;8.70599800;2022-07-23T10:29:19;19.50;;;11.20;;
5847;SDS011;8756;49.29324300;8.70599800;2022-07-23T10:31:56;18.97;;;11.50;;
5847;SDS011;8756;49.29324300;8.70599800;2022-07-23T10:37:32;19.37;;;10.30;;
5847;SDS011;8756;49.29324300;8.70599800;2022-07-23T10:40:15;19.97;;;12.00;;
5847;SDS011;8756;49.29324300;8.70599800;2022-07-23T10:42:46;22.30;;;11.47;;
5847;SDS011;8756;49.29324300;8.70599800;2022-07-23T10:50:43;21.30;;;10.40;;
5847;SDS011;8756;49.29324300;8.70599800;2022-07-23T10:53:29;21.60;;;12.07;;
5847;SDS011;8756;49.29324300;8.70599800;2022-07-23T10:56:14;23.07;;;10.87;;
5847;SDS011;8756;49.29324300;8.70599800;2022-07-23T10:58:47;18.90;;;10.43;;
5847;SDS011;8756;49.29324300;8.70599800;2022-07-23T11:04:04;19.83;;;11.13;;
5847;SDS011;8756;49.29324300;8.70599800;2022-07-23T11:09:23;17.67;;;9.97;;
5847;SDS011;8756;49.29324300;8.70599800;2022-07-23T11:17:34;17.93;;;10.80;;
5847;SDS011;8756;49.29324300;8.70599800;2022-07-23T11:22:56;21.43;;;11.30;;
5847;SDS011;8756;49.29324300;8.70599800;2022-07-23T11:27:55;21.20;;;11.20;;
5847;SDS011;8756;49.29324300;8.70599800;2022-07-23T11:30:37;19.17;;;11.20;;
5847;SDS011;8756;49.29324300;8.70599800;2022-07-23T11:35:36;17.57;;;10.50;;
5847;SDS011;8756;49.29324300;8.70599800;2022-07-23T11:38:07;19.27;;;11.67;;
5847;SDS011;8756;49.29324300;8.70599800;2022-07-23T11:40:47;18.83;;;10.53;;
5847;SDS011;8756;49.29324300;8.70599800;2022-07-23T11:43:14;18.00;;;10.30;;
5847;SDS011;8756;49.29324300;8.70599800;2022-07-23T11:45:44;16.50;;;9.60;;
5847;SDS011;8756;49.29324300;8.70599800;2022-07-23T11:48:27;21.40;;;11.23;;
5847;SDS011;8756;49.29324300;8.70599800;2022-07-23T11:50:58;17.90;;;9.97;;
5847;SDS011;8756;49.29324300;8.70599800;2022-07-23T11:53:31;19.13;;;10.87;;
5847;SDS011;8756;49.29324300;8.70599800;2022-07-23T11:56:12;18.20;;;10.27;;
5847;SDS011;8756;49.29324300;8.70599800;2022-07-23T11:58:41;21.53;;;11.10;;
5847;SDS011;8756;49.29324300;8.70599800;2022-07-23T12:01:23;22.77;;;11.17;;
5847;SDS011;8756;49.29324300;8.70599800;2022-07-23T12:03:54;23.70;;;12.00;;
5847;SDS011;8756;49.29324300;8.70599800;2022-07-23T12:06:41;19.97;;;11.30;;
5847;SDS011;8756;49.29324300;8.70599800;2022-07-23T12:09:10;18.60;;;10.50;;
5847;SDS011;8756;49.29324300;8.70599800;2022-07-23T12:11:41;21.10;;;11.60;;
5847;SDS011;8756;49.29324300;8.70599800;2022-07-23T12:14:26;17.87;;;11.57;;
5847;SDS011;8756;49.29324300;8.70599800;2022-07-23T12:17:11;20.03;;;11.83;;
5847;SDS011;8756;49.29324300;8.70599800;2022-07-23T12:19:41;18.00;;;10.57;;
5847;SDS011;8756;49.29324300;8.70599800;2022-07-23T12:22:10;18.30;;;11.20;;
5847;SDS011;8756;49.29324300;8.70599800;2022-07-23T12:27:31;18.37;;;10.03;;
5847;SDS011;8756;49.29324300;8.70599800;2022-07-23T12:30:14;22.33;;;11.30;;
5847;SDS011;8756;49.29324300;8.70599800;2022-07-23T12:32:54;18.20;;;10.70;;
5847;SDS011;8756;49.29324300;8.70599800;2022-07-23T12:35:29;20.83;;;11.20;;
5847;SDS011;8756;49.29324300;8.70599800;2022-07-23T12:38:01;19.33;;;10.90;;
5847;SDS011;8756;49.29324300;8.70599800;2022-07-23T12:43:24;18.97;;;11.27;;
5847;SDS011;8756;49.29324300;8.70599800;2022-07-23T12:46:08;17.97;;;10.03;;
5847;SDS011;8756;49.29324300;8.70599800;2022-07-23T12:48:54;19.60;;;11.63;;
5847;SDS011;8756;49.29324300;8.70599800;2022-07-23T12:51:22;18.03;;;9.70;;
5847;SDS011;8756;49.29324300;8.70599800;2022-07-23T12:54:12;18.40;;;9.57;;
5847;SDS011;8756;49.29324300;8.70599800;2022-07-23T12:56:44;16.10;;;9.37;;
5847;SDS011;8756;49.29324300;8.70599800;2022-07-23T12:59:13;16.47;;;9.43;;
5847;SDS011;8756;49.29324300;8.70599800;2022-07-23T13:01:44;17.73;;;8.77;;
5847;SDS011;8756;49.29324300;8.70599800;2022-07-23T13:04:22;17.00;;;8.90;;
5847;SDS011;8756;49.29324300;8.70599800;2022-07-23T13:06:56;15.40;;;8.20;;
5847;SDS011;8756;49.29324300;8.70599800;2022-07-23T13:09:24;15.57;;;9.03;;
5847;SDS011;8756;49.29324300;8.70599800;2022-07-23T13:11:54;23.77;;;9.10;;
5847;SDS011;8756;49.29324300;8.70599800;2022-07-23T13:14:22;15.97;;;9.50;;
5847;SDS011;8756;49.29324300;8.70599800;2022-07-23T13:16:52;16.20;;;9.10;;
5847;SDS011;8756;49.29324300;8.70599800;2022-07-23T13:19:21;17.07;;;9.20;;
5847;SDS011;8756;49.29324300;8.70599800;2022-07-23T13:21:50;15.30;;;8.77;;
5847;SDS011;8756;49.29324300;8.70599800;2022-07-23T13:24:20;16.93;;;9.33;;
5847;SDS011;8756;49.29324300;8.70599800;2022-07-23T13:26:49;18.70;;;9.80;;
5847;SDS011;8756;49.29324300;8.70599800;2022-07-23T13:29:18;20.63;;;9.70;;
5847;SDS011;8756;49.29324300;8.70599800;2022-07-23T13:31:47;16.93;;;8.97;;
5847;SDS011;8756;49.29324300;8.70599800;2022-07-23T13:34:14;16.83;;;9.80;;